Time;durP1;ratioP1;P1;durP2;ratioP2;P2;SDS_P1;SDS_P2;PMS_P1;PMS_P2;Temp;Humidity;BMP_temperature;BMP_pressure;BME280_temperature;BME280_humidity;BME280_pressure;Samples;Min_cycle;Max_cycle;Signal;HPM_P1;HPM_P2
2023/01/31 00:01:25;;;;;;;17.25;8.27;;;18.20;63.10;;;;;;4494463;31;20559;-65
2023/01/31 00:03:53;;;;;;;15.07;7.78;;;18.20;63.10;;;;;;4497915;31;20143;-64
2023/01/31 00:06:24;;;;;;;18.38;8.32;;;18.20;63.10;;;;;;4496526;31;20156;-65
2023/01/31 00:08:51;;;;;;;17.67;8.50;;;18.20;63.20;;;;;;4498678;31;20136;-65
2023/01/31 00:11:19;;;;;;;17.40;7.75;;;18.20;63.20;;;;;;4493361;31;20125;-65
2023/01/31 00:13:45;;;;;;;20.27;8.68;;;18.20;63.20;;;;;;4495830;31;20147;-64
2023/01/31 00:16:13;;;;;;;15.45;7.47;;;18.20;63.20;;;;;;4497526;31;20152;-64
2023/01/31 00:18:40;;;;;;;16.25;7.68;;;18.20;63.30;;;;;;4509474;31;20128;-64
2023/01/31 00:21:08;;;;;;;18.45;8.52;;;18.20;63.20;;;;;;4498279;31;20124;-64
2023/01/31 00:23:35;;;;;;;19.02;7.85;;;18.10;63.20;;;;;;4493309;31;20144;-64
2023/01/31 00:26:17;;;;;;;14.27;7.65;;;18.10;63.20;;;;;;4473288;31;20791;-65
2023/01/31 00:28:45;;;;;;;16.52;6.88;;;18.10;63.20;;;;;;4496946;31;20198;-65
2023/01/31 00:31:13;;;;;;;15.02;7.40;;;18.10;63.20;;;;;;4497767;31;20117;-64
2023/01/31 00:33:42;;;;;;;14.98;6.90;;;18.10;63.20;;;;;;4509892;31;20139;-65
2023/01/31 00:36:13;;;;;;;13.52;7.10;;;18.10;63.20;;;;;;4493024;31;20139;-64
2023/01/31 00:38:41;;;;;;;13.55;7.07;;;18.10;63.20;;;;;;4491627;31;20328;-65
2023/01/31 00:41:08;;;;;;;14.02;7.00;;;18.00;63.10;;;;;;4496571;31;20125;-64
2023/01/31 00:43:34;;;;;;;11.85;6.82;;;18.10;63.20;;;;;;4497944;31;20133;-65
2023/01/31 00:46:00;;;;;;;13.82;6.97;;;18.00;64.00;;;;;;4497095;31;20139;-64
2023/01/31 00:48:27;;;;;;;15.05;6.28;;;18.00;63.10;;;;;;4497250;31;20120;-64
2023/01/31 00:50:53;;;;;;;11.00;6.18;;;18.00;63.10;;;;;;4509838;31;20132;-64
2023/01/31 00:53:22;;;;;;;14.85;6.65;;;18.00;63.00;;;;;;4496422;31;20262;-65
2023/01/31 00:55:53;;;;;;;13.98;6.38;;;18.00;63.00;;;;;;4496898;31;20132;-64
2023/01/31 00:58:20;;;;;;;14.25;6.70;;;18.00;63.00;;;;;;4493815;31;20144;-65
2023/01/31 01:00:46;;;;;;;16.75;6.80;;;18.00;63.00;;;;;;4497954;31;20139;-65
2023/01/31 01:03:13;;;;;;;11.00;6.20;;;18.00;63.00;;;;;;4508912;31;20108;-65
2023/01/31 01:05:40;;;;;;;11.25;5.90;;;18.00;63.00;;;;;;4497088;31;20225;-64
2023/01/31 01:08:07;;;;;;;14.25;6.68;;;18.00;63.00;;;;;;4497484;31;20132;-65
2023/01/31 01:10:33;;;;;;;12.95;5.95;;;18.00;63.00;;;;;;4496141;31;20132;-64
2023/01/31 01:12:58;;;;;;;12.10;5.72;;;18.00;63.00;;;;;;4509898;31;20187;-64
2023/01/31 01:15:25;;;;;;;13.68;6.00;;;18.00;62.90;;;;;;4508115;31;20124;-64
2023/01/31 01:17:53;;;;;;;15.10;6.75;;;18.00;62.90;;;;;;4509199;31;20238;-64
2023/01/31 01:20:19;;;;;;;11.55;5.72;;;18.00;62.90;;;;;;4493548;31;20129;-64
2023/01/31 01:22:46;;;;;;;11.50;6.00;;;18.00;62.90;;;;;;4497080;31;20272;-64
2023/01/31 01:25:12;;;;;;;12.13;5.40;;;17.90;62.80;;;;;;4509517;31;20710;-65
2023/01/31 01:27:42;;;;;;;12.73;5.93;;;17.90;62.90;;;;;;4496103;31;20128;-64
2023/01/31 01:30:09;;;;;;;12.30;6.15;;;17.90;62.80;;;;;;4509729;31;20117;-64
2023/01/31 01:32:35;;;;;;;11.50;5.60;;;17.90;62.80;;;;;;4506768;31;20290;-66
2023/01/31 01:35:19;;;;;;;12.07;5.43;;;17.90;62.80;;;;;;4482395;31;20143;-66
2023/01/31 01:37:45;;;;;;;12.70;5.45;;;17.90;62.80;;;;;;4507585;31;20140;-65
2023/01/31 01:40:11;;;;;;;15.07;5.75;;;17.90;63.70;;;;;;4482694;31;20129;-65
2023/01/31 01:42:37;;;;;;;13.57;5.97;;;17.90;62.80;;;;;;4484599;31;20231;-65
2023/01/31 01:45:15;;;;;;;11.63;5.88;;;17.90;62.80;;;;;;4481629;31;20294;-65
2023/01/31 01:47:55;;;;;;;12.63;5.65;;;17.90;62.80;;;;;;4482117;31;20128;-66
2023/01/31 01:50:32;;;;;;;9.27;4.60;;;17.80;62.70;;;;;;4495212;31;20139;-65
2023/01/31 01:53:15;;;;;;;10.55;5.45;;;17.80;62.80;;;;;;4483495;32;20617;-65
2023/01/31 01:55:45;;;;;;;13.10;5.50;;;17.80;62.80;;;;;;4496132;32;20596;-65
2023/01/31 01:58:19;;;;;;;10.02;5.35;;;17.80;62.90;;;;;;4506149;31;20171;-65
2023/01/31 02:00:46;;;;;;;10.27;4.55;;;17.80;62.90;;;;;;4494875;32;20144;-66
2023/01/31 02:03:14;;;;;;;13.02;5.40;;;17.80;62.90;;;;;;4483140;32;20785;-65
2023/01/31 02:05:48;;;;;;;11.40;5.25;;;17.80;62.90;;;;;;4495248;31;20132;-66
2023/01/31 02:08:30;;;;;;;8.45;4.57;;;17.80;62.90;;;;;;4486108;31;20150;-65
2023/01/31 02:11:14;;;;;;;11.38;5.30;;;17.80;62.90;;;;;;4492348;32;20146;-66
2023/01/31 02:13:41;;;;;;;9.75;4.60;;;17.80;62.90;;;;;;4495943;32;20143;-65
2023/01/31 02:16:07;;;;;;;11.73;4.90;;;17.70;62.90;;;;;;4496182;32;20132;-65
2023/01/31 02:18:34;;;;;;;10.00;4.65;;;17.70;62.90;;;;;;4493159;32;20214;-64
2023/01/31 02:21:21;;;;;;;9.35;4.70;;;17.70;62.90;;;;;;4496771;31;20139;-65
2023/01/31 02:23:50;;;;;;;9.75;4.45;;;17.70;62.80;;;;;;4495155;32;20124;-64
2023/01/31 02:26:48;;;;;;;10.10;4.88;;;17.70;62.90;;;;;;4497026;32;20572;-64
2023/01/31 02:29:23;;;;;;;8.40;4.45;;;17.70;62.90;;;;;;4496767;31;20255;-64
2023/01/31 02:32:26;;;;;;;9.32;4.55;;;17.60;62.90;;;;;;4495922;31;20182;-64
2023/01/31 02:35:04;;;;;;;9.15;4.80;;;17.60;62.90;;;;;;4492650;31;20135;-64
2023/01/31 02:37:44;;;;;;;9.18;4.30;;;17.60;63.00;;;;;;4494577;31;20136;-65
2023/01/31 02:40:39;;;;;;;9.57;4.78;;;17.60;63.00;;;;;;4496252;31;20125;-65
2023/01/31 02:43:27;;;;;;;9.13;5.00;;;17.60;63.00;;;;;;4484778;31;20117;-64
2023/01/31 02:46:13;;;;;;;7.63;4.18;;;17.60;63.00;;;;;;4496610;31;20290;-65
2023/01/31 02:48:54;;;;;;;8.63;4.40;;;17.60;63.00;;;;;;4496742;31;20128;-65
2023/01/31 02:51:37;;;;;;;7.65;4.25;;;17.50;63.00;;;;;;4497974;31;20144;-66
2023/01/31 02:56:13;;;;;;;9.20;4.32;;;17.50;63.00;;;;;;4484149;31;20202;-65
2023/01/31 02:57:11;;;;;;;9.23;4.60;;;17.50;63.00;;;;;;4494743;31;20137;-64
2023/01/31 02:59:38;;;;;;;8.93;4.82;;;17.50;63.00;;;;;;4486653;31;20592;-65
2023/01/31 03:02:04;;;;;;;8.45;4.15;;;17.50;63.00;;;;;;4496905;31;20421;-65
2023/01/31 03:04:32;;;;;;;8.88;4.50;;;17.50;63.10;;;;;;4499510;31;20190;-65
2023/01/31 03:07:06;;;;;;;7.38;3.72;;;17.50;63.10;;;;;;4491910;31;20497;-65
2023/01/31 03:09:43;;;;;;;9.55;3.97;;;17.50;63.20;;;;;;4492952;31;20321;-65
2023/01/31 03:12:13;;;;;;;9.13;4.00;;;17.50;63.20;;;;;;4498883;31;20117;-64
2023/01/31 03:15:09;;;;;;;7.15;3.55;;;17.50;63.20;;;;;;4498054;31;20257;-65
2023/01/31 03:18:07;;;;;;;8.23;3.60;;;17.40;63.10;;;;;;4497372;31;20120;-65
2023/01/31 03:20:42;;;;;;;6.80;3.97;;;17.40;63.10;;;;;;4498635;31;20647;-65
2023/01/31 03:23:15;;;;;;;8.23;4.13;;;17.40;63.20;;;;;;4482275;31;20563;-65
2023/01/31 03:25:42;;;;;;;8.32;3.78;;;17.40;63.20;;;;;;4497085;31;20112;-64
2023/01/31 03:28:13;;;;;;;7.65;3.75;;;17.40;63.20;;;;;;4497482;31;20125;-65
2023/01/31 03:30:47;;;;;;;8.27;3.70;;;17.40;63.20;;;;;;4492904;31;20187;-65
2023/01/31 03:33:22;;;;;;;9.98;4.22;;;17.40;63.20;;;;;;4491846;31;20629;-65
2023/01/31 03:36:01;;;;;;;8.15;3.70;;;17.40;63.10;;;;;;4495506;31;20138;-65
2023/01/31 03:38:34;;;;;;;7.97;3.83;;;17.30;63.10;;;;;;4498234;31;20262;-65
2023/01/31 03:41:09;;;;;;;7.88;3.80;;;17.30;63.20;;;;;;4496464;31;20165;-65
2023/01/31 03:43:49;;;;;;;6.55;3.67;;;17.30;63.20;;;;;;4497690;31;20576;-64
2023/01/31 03:46:24;;;;;;;7.32;3.80;;;17.30;63.20;;;;;;4497293;31;20132;-65
2023/01/31 03:48:54;;;;;;;9.23;3.80;;;17.30;63.20;;;;;;4497482;31;20297;-64
2023/01/31 03:51:26;;;;;;;9.00;3.63;;;17.30;63.20;;;;;;4498802;31;20221;-65
2023/01/31 03:53:57;;;;;;;6.97;3.33;;;17.30;63.20;;;;;;4497148;31;20144;-64
2023/01/31 03:56:43;;;;;;;7.18;3.47;;;17.30;63.20;;;;;;4498817;31;20147;-64
2023/01/31 03:59:14;;;;;;;7.43;3.40;;;17.30;63.20;;;;;;4497878;31;20171;-65
2023/01/31 04:01:47;;;;;;;7.40;3.67;;;17.30;63.20;;;;;;4497161;31;20194;-65
2023/01/31 04:04:32;;;;;;;8.07;3.10;;;17.30;63.20;;;;;;4498770;31;20530;-65
2023/01/31 04:07:02;;;;;;;6.15;3.53;;;17.30;63.20;;;;;;4493397;31;20187;-64
2023/01/31 04:09:28;;;;;;;6.20;3.38;;;17.20;63.10;;;;;;4486212;31;20120;-65
2023/01/31 04:11:59;;;;;;;5.75;2.97;;;17.20;63.20;;;;;;4496926;31;20139;-64
2023/01/31 04:14:25;;;;;;;5.53;3.30;;;17.20;63.20;;;;;;4497326;31;20135;-65
2023/01/31 04:16:51;;;;;;;5.53;2.78;;;17.20;63.20;;;;;;4498480;31;20129;-64
2023/01/31 04:19:17;;;;;;;5.95;3.20;;;17.20;63.20;;;;;;4508744;31;20247;-64
2023/01/31 04:21:43;;;;;;;6.47;3.20;;;17.20;63.20;;;;;;4494780;31;20143;-64
2023/01/31 04:24:09;;;;;;;8.93;3.72;;;17.20;63.20;;;;;;4491426;31;20237;-64
2023/01/31 04:26:36;;;;;;;5.85;2.83;;;17.20;63.20;;;;;;4494372;31;20129;-64
2023/01/31 04:29:04;;;;;;;7.93;3.38;;;17.20;63.30;;;;;;4478055;31;20135;-65
2023/01/31 04:31:30;;;;;;;6.18;3.15;;;17.20;63.20;;;;;;4497220;31;20109;-64
2023/01/31 04:33:56;;;;;;;6.07;3.10;;;17.20;63.20;;;;;;4498235;31;20132;-65
2023/01/31 04:36:23;;;;;;;6.28;3.05;;;17.10;63.20;;;;;;4496659;31;20120;-65
2023/01/31 04:38:50;;;;;;;5.72;2.72;;;17.20;63.30;;;;;;4498333;31;20186;-65
2023/01/31 04:41:16;;;;;;;6.20;3.00;;;17.20;63.30;;;;;;4496539;31;20141;-65
2023/01/31 04:43:42;;;;;;;5.32;2.90;;;17.20;63.30;;;;;;4497790;31;20314;-64
2023/01/31 04:46:07;;;;;;;6.55;3.03;;;17.20;63.20;;;;;;4496198;31;20481;-65
2023/01/31 04:48:33;;;;;;;7.80;3.50;;;17.10;63.20;;;;;;4492827;31;20121;-64
2023/01/31 04:51:00;;;;;;;8.10;2.90;;;17.20;63.10;;;;;;4480692;32;20129;-64
2023/01/31 04:53:29;;;;;;;5.88;2.55;;;17.20;63.00;;;;;;4493966;31;20189;-64
2023/01/31 04:55:54;;;;;;;5.03;2.85;;;17.20;63.00;;;;;;4510184;31;20136;-64
2023/01/31 04:58:21;;;;;;;8.02;2.80;;;17.20;62.90;;;;;;4492972;31;20207;-64
2023/01/31 05:00:47;;;;;;;6.30;3.08;;;17.20;62.80;;;;;;4497693;31;20140;-65
2023/01/31 05:03:13;;;;;;;6.07;2.47;;;17.30;62.80;;;;;;4493439;31;20144;-65
2023/01/31 05:05:39;;;;;;;5.30;2.65;;;17.30;62.70;;;;;;4479803;32;20152;-64
2023/01/31 05:08:05;;;;;;;4.68;2.42;;;17.30;62.70;;;;;;4480836;32;20133;-64
2023/01/31 05:10:33;;;;;;;5.65;2.40;;;17.30;62.60;;;;;;4493735;31;20137;-65
2023/01/31 05:12:59;;;;;;;6.38;2.53;;;17.30;62.50;;;;;;4509929;31;20140;-64
2023/01/31 05:15:25;;;;;;;5.80;2.63;;;17.40;62.50;;;;;;4496085;31;20168;-64
2023/01/31 05:18:01;;;;;;;4.78;2.45;;;17.40;62.50;;;;;;4497627;31;20218;-64
2023/01/31 05:20:35;;;;;;;4.70;2.60;;;17.40;62.40;;;;;;4496639;31;20176;-65
2023/01/31 05:23:02;;;;;;;6.15;2.88;;;17.40;62.30;;;;;;4496549;31;20140;-64
2023/01/31 05:25:28;;;;;;;4.47;2.60;;;17.40;62.30;;;;;;4509813;31;20120;-64
2023/01/31 05:27:54;;;;;;;3.55;2.20;;;17.40;62.20;;;;;;4492298;31;20151;-64
2023/01/31 05:30:22;;;;;;;4.55;2.47;;;17.40;62.20;;;;;;4491462;31;20109;-65
2023/01/31 05:32:49;;;;;;;5.70;2.67;;;17.40;62.20;;;;;;4496021;31;20143;-64
2023/01/31 05:35:15;;;;;;;4.53;2.90;;;17.40;62.20;;;;;;4497009;31;20144;-64
2023/01/31 05:37:42;;;;;;;5.00;2.20;;;17.40;62.00;;;;;;4494972;31;20276;-65
2023/01/31 05:40:16;;;;;;;6.65;2.25;;;17.40;62.00;;;;;;4496227;31;20129;-64
2023/01/31 05:42:42;;;;;;;4.70;2.38;;;17.50;62.00;;;;;;4495057;31;20133;-64
2023/01/31 05:45:09;;;;;;;5.35;2.45;;;17.50;62.00;;;;;;4495792;31;20136;-64
2023/01/31 05:47:38;;;;;;;5.22;2.40;;;17.50;62.00;;;;;;4508777;31;20190;-66
2023/01/31 05:50:04;;;;;;;6.20;2.28;;;17.50;61.90;;;;;;4495797;31;20136;-65
2023/01/31 05:52:31;;;;;;;5.45;2.28;;;17.50;61.90;;;;;;4508956;31;20133;-66
2023/01/31 05:54:57;;;;;;;4.97;2.20;;;17.50;61.90;;;;;;4508976;31;20645;-65
2023/01/31 05:57:23;;;;;;;5.15;2.22;;;17.50;61.90;;;;;;4507950;31;20125;-65
2023/01/31 05:59:49;;;;;;;6.05;2.42;;;17.50;62.00;;;;;;4496983;31;20176;-65
2023/01/31 06:02:15;;;;;;;4.88;2.30;;;17.50;61.90;;;;;;4491735;31;20131;-65
2023/01/31 06:04:46;;;;;;;4.68;2.08;;;17.50;62.00;;;;;;4493118;31;20613;-65
2023/01/31 06:07:12;;;;;;;4.68;2.20;;;17.50;62.00;;;;;;4499190;31;20190;-65
2023/01/31 06:09:39;;;;;;;6.78;2.50;;;17.50;62.00;;;;;;4496251;31;20129;-65
2023/01/31 06:12:13;;;;;;;6.13;2.47;;;17.50;62.00;;;;;;4497317;31;20439;-65
2023/01/31 06:14:39;;;;;;;5.18;2.38;;;17.50;62.00;;;;;;4498902;31;20129;-65
2023/01/31 06:17:05;;;;;;;4.57;2.05;;;17.50;62.00;;;;;;4497285;31;20267;-65
2023/01/31 06:19:31;;;;;;;4.25;2.30;;;17.50;62.00;;;;;;4510788;31;20097;-65
2023/01/31 06:21:57;;;;;;;4.88;2.17;;;17.50;62.10;;;;;;4512226;31;20186;-65
2023/01/31 06:24:24;;;;;;;7.07;2.35;;;17.50;62.10;;;;;;4495385;31;20121;-65
2023/01/31 06:26:52;;;;;;;4.75;2.25;;;17.50;62.00;;;;;;4492970;31;20258;-64
2023/01/31 06:29:22;;;;;;;5.30;2.28;;;17.50;62.10;;;;;;4495624;31;20133;-64
2023/01/31 06:31:49;;;;;;;4.22;2.00;;;17.50;62.10;;;;;;4491085;31;20125;-65
2023/01/31 06:34:15;;;;;;;5.38;2.35;;;17.50;62.00;;;;;;4500073;31;20140;-65
2023/01/31 06:36:48;;;;;;;5.80;2.60;;;17.50;62.00;;;;;;4494128;31;20148;-65
2023/01/31 06:39:14;;;;;;;4.28;1.95;;;17.50;62.10;;;;;;4496111;31;20117;-64
2023/01/31 06:41:40;;;;;;;3.60;1.90;;;17.50;62.00;;;;;;4495494;31;20275;-65
2023/01/31 06:44:06;;;;;;;4.32;2.25;;;17.50;62.10;;;;;;4493931;31;20129;-64
2023/01/31 06:46:37;;;;;;;3.88;2.00;;;17.50;62.00;;;;;;4498406;31;20139;-64
2023/01/31 06:49:04;;;;;;;5.70;2.22;;;17.50;62.00;;;;;;4498011;31;20171;-65
2023/01/31 06:51:30;;;;;;;4.88;1.90;;;17.50;62.00;;;;;;4499712;31;20128;-65
2023/01/31 06:53:56;;;;;;;3.60;1.83;;;17.50;62.00;;;;;;4496920;31;20125;-65
2023/01/31 06:56:22;;;;;;;7.45;2.05;;;17.50;61.90;;;;;;4499561;31;20128;-65
2023/01/31 06:58:48;;;;;;;4.10;1.65;;;17.50;62.00;;;;;;4497354;31;20125;-65
2023/01/31 07:01:14;;;;;;;3.03;1.63;;;17.50;62.00;;;;;;4497922;31;20129;-65
2023/01/31 07:03:41;;;;;;;5.88;2.22;;;17.40;61.90;;;;;;4498331;31;20129;-64
2023/01/31 07:06:08;;;;;;;5.57;2.33;;;17.50;62.00;;;;;;4490232;31;20664;-65
2023/01/31 07:08:34;;;;;;;3.97;1.90;;;17.40;61.90;;;;;;4499577;31;20179;-64
2023/01/31 07:11:01;;;;;;;6.95;2.25;;;17.40;61.90;;;;;;4497765;31;20183;-64
2023/01/31 07:13:28;;;;;;;3.92;1.92;;;17.40;61.90;;;;;;4499489;31;20163;-65
2023/01/31 07:15:57;;;;;;;5.43;1.98;;;17.40;62.00;;;;;;4498118;31;20185;-65
2023/01/31 07:18:23;;;;;;;3.88;1.85;;;17.40;61.90;;;;;;4499660;31;20133;-64
2023/01/31 07:20:50;;;;;;;4.20;1.90;;;17.40;61.90;;;;;;4497874;31;20136;-65
2023/01/31 07:23:16;;;;;;;6.38;2.30;;;17.40;61.90;;;;;;4486449;31;20132;-65
2023/01/31 07:25:42;;;;;;;4.05;1.52;;;17.40;61.80;;;;;;4488443;31;20516;-65
2023/01/31 07:28:08;;;;;;;4.95;2.13;;;17.40;61.80;;;;;;4497578;31;20121;-65
2023/01/31 07:30:34;;;;;;;4.50;2.33;;;17.40;61.80;;;;;;4498934;31;20147;-64
2023/01/31 07:33:01;;;;;;;5.53;2.25;;;17.40;61.80;;;;;;4483919;31;20841;-65
2023/01/31 07:35:27;;;;;;;5.72;2.05;;;17.40;61.80;;;;;;4496173;31;20164;-64
2023/01/31 07:37:54;;;;;;;4.30;1.80;;;17.40;61.80;;;;;;4496679;31;20577;-65
2023/01/31 07:40:21;;;;;;;5.82;2.15;;;17.40;61.70;;;;;;4497259;31;20131;-65
2023/01/31 07:42:46;;;;;;;8.18;2.13;;;17.40;61.60;;;;;;4498571;31;20279;-64
2023/01/31 07:45:15;;;;;;;7.93;2.42;;;17.40;61.80;;;;;;4497284;31;20186;-65
2023/01/31 07:47:41;;;;;;;7.88;2.25;;;17.40;61.90;;;;;;4498287;31;20583;-65
2023/01/31 07:50:08;;;;;;;9.27;2.30;;;17.50;61.90;;;;;;4496982;31;20150;-65
2023/01/31 07:52:34;;;;;;;9.60;2.67;;;17.50;61.60;;;;;;4485395;31;20156;-64
2023/01/31 07:55:00;;;;;;;4.72;1.88;;;17.60;61.40;;;;;;4495829;31;20131;-64
2023/01/31 07:57:26;;;;;;;10.23;2.38;;;17.80;61.10;;;;;;4497438;31;20127;-64
2023/01/31 07:59:51;;;;;;;5.20;1.83;;;17.90;60.70;;;;;;4484748;31;20116;-65
2023/01/31 08:05:02;;;;;;;6.38;2.17;;;18.10;60.10;;;;;;4497713;31;20148;-64
2023/01/31 08:07:29;;;;;;;8.70;2.33;;;18.30;59.70;;;;;;4482742;31;20140;-65
2023/01/31 08:09:55;;;;;;;9.60;1.83;;;18.40;59.50;;;;;;4509540;31;20120;-65
2023/01/31 08:12:21;;;;;;;12.57;2.13;;;18.50;59.30;;;;;;4485356;31;20140;-65
2023/01/31 08:14:47;;;;;;;11.13;2.15;;;18.60;59.20;;;;;;4497058;31;20316;-65
2023/01/31 08:17:15;;;;;;;6.90;2.10;;;18.60;59.00;;;;;;4497291;31;20121;-64
2023/01/31 08:19:41;;;;;;;7.63;2.10;;;18.70;59.00;;;;;;4496107;31;20129;-65
2023/01/31 08:22:07;;;;;;;5.75;1.75;;;18.70;58.90;;;;;;4497551;31;20133;-65
2023/01/31 08:24:33;;;;;;;7.68;2.00;;;18.80;58.80;;;;;;4497012;31;20215;-65
2023/01/31 08:27:00;;;;;;;6.45;2.20;;;18.80;58.70;;;;;;4496372;31;20133;-64
2023/01/31 08:29:26;;;;;;;7.60;2.40;;;18.90;58.60;;;;;;4497188;31;20136;-65
2023/01/31 08:31:55;;;;;;;7.07;2.30;;;19.00;58.50;;;;;;4496143;31;20132;-65
2023/01/31 08:34:22;;;;;;;5.88;1.98;;;19.10;58.30;;;;;;4497677;31;20185;-65
2023/01/31 08:36:48;;;;;;;5.05;1.65;;;19.20;58.20;;;;;;4496454;31;20152;-64
2023/01/31 08:39:14;;;;;;;7.25;1.98;;;19.20;58.10;;;;;;4497616;31;20229;-64
2023/01/31 08:41:41;;;;;;;9.75;2.15;;;19.20;57.90;;;;;;4494645;31;20583;-65
2023/01/31 08:44:07;;;;;;;5.38;1.48;;;19.30;57.90;;;;;;4484514;31;20125;-65
2023/01/31 08:46:35;;;;;;;5.57;1.70;;;19.30;57.90;;;;;;4490212;31;20160;-64
2023/01/31 08:49:08;;;;;;;7.10;2.08;;;19.20;57.90;;;;;;4496074;31;20266;-64
2023/01/31 08:51:35;;;;;;;6.90;2.10;;;19.20;58.00;;;;;;4496835;31;20617;-65
2023/01/31 08:54:00;;;;;;;4.78;1.88;;;19.20;58.10;;;;;;4483708;31;20129;-64
2023/01/31 08:56:27;;;;;;;10.00;2.72;;;19.20;58.30;;;;;;4490746;31;20134;-64
2023/01/31 08:58:53;;;;;;;10.93;2.10;;;19.10;58.30;;;;;;4481764;31;20255;-65
2023/01/31 09:01:20;;;;;;;9.90;2.25;;;19.00;58.40;;;;;;4496943;31;20213;-64
2023/01/31 09:03:55;;;;;;;11.77;2.28;;;19.10;58.50;;;;;;4497532;31;20258;-65
2023/01/31 09:06:23;;;;;;;8.60;2.20;;;19.10;58.60;;;;;;4482776;31;20190;-64
2023/01/31 09:08:49;;;;;;;7.22;2.20;;;19.00;58.50;;;;;;4497682;31;20137;-64
2023/01/31 09:11:18;;;;;;;5.15;1.88;;;19.10;58.40;;;;;;4481986;31;20182;-65
2023/01/31 09:13:50;;;;;;;7.28;1.95;;;19.20;58.30;;;;;;4493651;31;20129;-65
2023/01/31 09:16:16;;;;;;;9.68;2.78;;;19.20;59.10;;;;;;4490924;31;20140;-66
2023/01/31 09:18:42;;;;;;;10.07;2.50;;;19.30;58.10;;;;;;4481274;31;20252;-65
2023/01/31 09:21:12;;;;;;;16.95;2.40;;;19.40;58.10;;;;;;4496468;31;20177;-65
2023/01/31 09:23:44;;;;;;;12.32;2.35;;;19.40;58.00;;;;;;4491100;31;20135;-66
2023/01/31 09:26:11;;;;;;;10.02;2.63;;;19.50;57.90;;;;;;4497421;31;20120;-65
2023/01/31 09:28:41;;;;;;;8.15;2.30;;;19.50;57.80;;;;;;4496303;31;20151;-65
2023/01/31 09:31:12;;;;;;;8.05;1.92;;;19.50;57.70;;;;;;4495779;31;20132;-65
2023/01/31 09:33:38;;;;;;;7.28;2.42;;;19.50;57.70;;;;;;4497131;31;20241;-66
2023/01/31 09:36:07;;;;;;;10.52;2.40;;;19.50;57.50;;;;;;4489002;31;20263;-65
2023/01/31 09:38:34;;;;;;;9.57;2.30;;;19.50;57.40;;;;;;4490308;31;20170;-65
2023/01/31 09:41:05;;;;;;;9.30;2.45;;;19.50;57.60;;;;;;4495650;31;20209;-66
2023/01/31 09:43:38;;;;;;;11.20;2.38;;;19.50;57.30;;;;;;4497144;31;20144;-65
2023/01/31 09:46:13;;;;;;;11.48;2.35;;;19.50;57.30;;;;;;4496650;31;20159;-65
2023/01/31 09:48:47;;;;;;;10.55;2.05;;;19.50;57.40;;;;;;4495823;31;20112;-65
2023/01/31 09:51:14;;;;;;;8.93;2.13;;;19.40;57.40;;;;;;4497497;31;20143;-65
2023/01/31 09:53:42;;;;;;;8.35;2.33;;;19.40;57.50;;;;;;4495768;31;20140;-65
2023/01/31 09:56:08;;;;;;;8.25;2.38;;;19.30;57.60;;;;;;4497405;31;20125;-66
2023/01/31 09:58:56;;;;;;;9.45;2.55;;;19.30;57.80;;;;;;4495659;31;20130;-65
2023/01/31 10:01:31;;;;;;;7.05;2.15;;;19.20;57.90;;;;;;4496427;31;20395;-65
2023/01/31 10:04:06;;;;;;;8.27;2.15;;;19.20;58.10;;;;;;4497239;31;20176;-65
2023/01/31 10:07:00;;;;;;;10.02;2.25;;;19.10;58.20;;;;;;4495673;31;20129;-66
2023/01/31 10:09:39;;;;;;;8.23;2.05;;;19.00;58.40;;;;;;4487178;32;20152;-66
2023/01/31 10:12:17;;;;;;;9.02;2.45;;;18.90;58.60;;;;;;4496854;31;20191;-65
2023/01/31 10:14:49;;;;;;;9.50;2.42;;;18.80;58.60;;;;;;4495581;31;20286;-65
2023/01/31 10:17:57;;;;;;;8.68;2.30;;;18.80;58.80;;;;;;4497214;32;20270;-65
2023/01/31 10:20:34;;;;;;;8.50;2.30;;;18.70;58.90;;;;;;4494201;31;20139;-65
2023/01/31 10:23:21;;;;;;;6.93;2.15;;;18.70;59.10;;;;;;4495388;32;20164;-65
2023/01/31 10:26:05;;;;;;;7.20;2.40;;;18.60;59.20;;;;;;4497064;31;20294;-65
2023/01/31 10:29:01;;;;;;;6.43;2.00;;;18.60;59.40;;;;;;4495978;31;20136;-66
2023/01/31 10:31:46;;;;;;;7.80;2.22;;;18.50;59.40;;;;;;4486045;32;20145;-65
2023/01/31 10:34:18;;;;;;;7.82;2.38;;;18.50;59.60;;;;;;4494828;31;20298;-65
2023/01/31 10:37:03;;;;;;;6.82;2.00;;;18.40;59.70;;;;;;4495420;31;20125;-65
2023/01/31 10:39:43;;;;;;;10.60;2.58;;;18.40;59.70;;;;;;4496428;31;20143;-65
2023/01/31 10:42:33;;;;;;;9.02;2.03;;;18.40;60.00;;;;;;4497005;31;20117;-65
2023/01/31 10:45:08;;;;;;;5.40;1.52;;;18.40;60.80;;;;;;4492681;32;20160;-66
2023/01/31 10:47:36;;;;;;;8.70;2.20;;;18.30;60.00;;;;;;4496794;31;20258;-65
2023/01/31 10:50:16;;;;;;;6.50;1.90;;;18.30;60.10;;;;;;4509239;31;20120;-66
2023/01/31 10:53:10;;;;;;;5.95;1.88;;;18.20;60.10;;;;;;4498890;31;20124;-65
2023/01/31 10:56:11;;;;;;;5.57;1.67;;;18.20;60.10;;;;;;4511848;31;20279;-65
2023/01/31 10:58:45;;;;;;;12.13;1.95;;;18.20;60.30;;;;;;4498603;31;20148;-65
2023/01/31 11:01:13;;;;;;;6.25;2.55;;;18.20;60.30;;;;;;4498810;31;20136;-65
2023/01/31 11:03:55;;;;;;;6.45;1.90;;;18.20;60.50;;;;;;4499665;31;20140;-65
2023/01/31 11:06:23;;;;;;;5.40;2.03;;;18.10;60.40;;;;;;4494399;31;20132;-65
2023/01/31 11:09:10;;;;;;;8.93;2.22;;;18.10;60.40;;;;;;4497055;31;20121;-65
2023/01/31 11:11:56;;;;;;;7.10;2.33;;;18.10;60.40;;;;;;4498584;31;20205;-66
2023/01/31 11:14:22;;;;;;;8.35;2.45;;;18.10;60.40;;;;;;4498173;31;20141;-66
2023/01/31 11:16:49;;;;;;;5.38;1.70;;;18.00;60.50;;;;;;4511514;31;20206;-66
2023/01/31 11:19:35;;;;;;;7.25;1.80;;;18.10;60.50;;;;;;4497439;31;20131;-65
2023/01/31 11:22:02;;;;;;;8.50;2.15;;;18.00;60.50;;;;;;4499426;31;20132;-66
2023/01/31 11:24:31;;;;;;;4.22;1.70;;;18.00;60.50;;;;;;4510673;31;20127;-66
2023/01/31 11:27:06;;;;;;;5.97;1.92;;;18.00;60.50;;;;;;4498403;31;20116;-66
2023/01/31 11:29:34;;;;;;;7.38;2.10;;;18.00;60.50;;;;;;4499119;31;20184;-65
2023/01/31 11:32:05;;;;;;;5.97;1.95;;;18.00;60.50;;;;;;4497725;31;20159;-65
2023/01/31 11:34:32;;;;;;;5.93;1.95;;;18.00;60.50;;;;;;4499278;31;20125;-65
2023/01/31 11:37:16;;;;;;;6.30;2.00;;;18.00;60.50;;;;;;4498066;31;20556;-65
2023/01/31 11:40:13;;;;;;;5.05;1.70;;;18.00;60.40;;;;;;4498094;31;20369;-65
2023/01/31 11:42:50;;;;;;;5.93;1.83;;;18.00;60.40;;;;;;4499291;31;20124;-66
2023/01/31 11:45:19;;;;;;;5.78;2.00;;;18.00;60.30;;;;;;4497350;31;20132;-66
2023/01/31 11:47:49;;;;;;;7.35;2.28;;;18.00;60.30;;;;;;4498915;31;20136;-66
2023/01/31 11:50:40;;;;;;;6.18;2.10;;;18.00;60.30;;;;;;4497944;31;20120;-66
2023/01/31 11:53:20;;;;;;;8.10;1.98;;;18.00;60.20;;;;;;4497412;31;20174;-65
2023/01/31 11:55:48;;;;;;;9.32;2.28;;;18.00;60.10;;;;;;4495559;31;20121;-66
2023/01/31 11:58:37;;;;;;;5.78;1.75;;;18.10;60.20;;;;;;4492286;31;20145;-65
2023/01/31 12:01:13;;;;;;;10.80;2.25;;;18.00;60.20;;;;;;4497412;31;20132;-65
2023/01/31 12:03:48;;;;;;;6.13;2.00;;;18.00;61.00;;;;;;4498641;31;20147;-65
2023/01/31 12:06:31;;;;;;;6.47;2.03;;;18.10;60.20;;;;;;4497063;31;20302;-65
2023/01/31 12:08:59;;;;;;;7.32;1.90;;;18.00;60.10;;;;;;4498562;31;20124;-65
2023/01/31 12:11:34;;;;;;;6.68;1.60;;;18.00;60.10;;;;;;4497630;31;20124;-65
2023/01/31 12:14:18;;;;;;;6.22;2.08;;;18.00;60.00;;;;;;4497626;31;20221;-65
2023/01/31 12:16:55;;;;;;;5.97;2.10;;;18.10;60.00;;;;;;4498691;31;20125;-65
2023/01/31 12:19:34;;;;;;;7.03;1.70;;;18.10;60.00;;;;;;4496502;31;20207;-65
2023/01/31 12:22:20;;;;;;;7.57;2.05;;;18.10;60.00;;;;;;4498545;31;20148;-65
2023/01/31 12:25:15;;;;;;;7.05;1.77;;;18.10;60.00;;;;;;4488701;31;20121;-66
2023/01/31 12:28:05;;;;;;;6.78;1.90;;;18.10;60.00;;;;;;4496803;31;20257;-65
2023/01/31 12:30:40;;;;;;;7.13;2.17;;;18.10;60.00;;;;;;4498252;31;20155;-66
2023/01/31 12:33:15;;;;;;;6.55;1.88;;;18.10;59.90;;;;;;4497579;31;20145;-66
2023/01/31 12:36:23;;;;;;;5.22;1.98;;;18.10;60.00;;;;;;4497165;31;20108;-66
2023/01/31 12:38:56;;;;;;;;;;;18.10;59.90;;;;;;4498939;31;20137;-66
2023/01/31 12:41:35;;;;;;;5.53;2.03;;;18.10;60.00;;;;;;4480221;32;20021;-65
2023/01/31 12:44:29;;;;;;;6.25;2.42;;;18.10;59.90;;;;;;4491479;31;20664;-65
2023/01/31 12:46:58;;;;;;;;;;;18.10;60.00;;;;;;4497951;31;20168;-65
2023/01/31 12:49:36;;;;;;;4.90;1.70;;;18.00;60.00;;;;;;4496268;31;20178;-65
2023/01/31 12:52:25;;;;;;;5.78;2.30;;;18.10;59.90;;;;;;4497743;31;20144;-65
2023/01/31 12:55:00;;;;;;;7.32;2.15;;;18.10;59.80;;;;;;4493979;31;20275;-65
2023/01/31 12:57:46;;;;;;;7.35;2.25;;;18.10;59.90;;;;;;4496634;31;20132;-65
2023/01/31 13:00:35;;;;;;;7.10;2.00;;;18.10;59.80;;;;;;4497664;31;20124;-65
2023/01/31 13:03:12;;;;;;;8.07;2.10;;;18.10;59.80;;;;;;4495497;31;20148;-66
2023/01/31 13:05:54;;;;;;;6.28;1.85;;;18.10;59.80;;;;;;4496772;31;20136;-66
2023/01/31 13:08:30;;;;;;;4.22;1.80;;;18.10;59.90;;;;;;4498038;31;20128;-66
2023/01/31 13:11:02;;;;;;;7.78;2.10;;;18.10;59.80;;;;;;4492770;31;20684;-66
2023/01/31 13:13:55;;;;;;;6.97;2.00;;;18.10;59.70;;;;;;4492046;31;20494;-66